createdAt,value
2017-03-12T00:00:41.912Z,957.9
2017-03-12T00:01:41.896Z,957.89
2017-03-12T00:02:41.876Z,957.89
2017-03-12T00:03:41.860Z,957.89
2017-03-12T00:04:41.841Z,957.85
2017-03-12T00:05:41.823Z,957.83
2017-03-12T00:06:41.807Z,957.79
2017-03-12T00:07:41.789Z,957.76
2017-03-12T00:08:41.769Z,957.72
2017-03-12T00:09:41.754Z,957.79
2017-03-12T00:10:41.734Z,957.78
2017-03-12T00:11:41.715Z,957.85
2017-03-12T00:12:41.699Z,957.82
2017-03-12T00:13:41.681Z,957.81
2017-03-12T00:14:41.662Z,957.79
2017-03-12T00:15:41.644Z,957.78
2017-03-12T00:16:41.626Z,957.76
2017-03-12T00:17:41.610Z,957.74
2017-03-12T00:18:41.590Z,957.74
2017-03-12T00:19:41.573Z,957.71
2017-03-12T00:20:41.554Z,957.69
2017-03-12T00:21:41.536Z,957.71
2017-03-12T00:22:41.519Z,957.67
2017-03-12T00:23:41.501Z,957.66
2017-03-12T00:24:41.482Z,957.61
2017-03-12T00:25:41.465Z,957.64
2017-03-12T00:26:41.447Z,957.62
2017-03-12T00:27:41.430Z,957.58
2017-03-12T00:28:41.411Z,957.62
2017-03-12T00:29:41.393Z,957.66
2017-03-12T00:30:41.374Z,957.62
2017-03-12T00:31:41.358Z,957.64
2017-03-12T00:32:41.338Z,957.62
2017-03-12T00:33:41.320Z,957.62
2017-03-12T00:34:41.303Z,957.64
2017-03-12T00:35:41.282Z,957.61
2017-03-12T00:36:41.266Z,957.52
2017-03-12T00:37:41.250Z,957.53
2017-03-12T00:38:41.230Z,957.53
2017-03-12T00:39:41.213Z,957.53
2017-03-12T00:40:41.194Z,957.54
2017-03-12T00:41:41.177Z,957.57
2017-03-12T00:42:41.165Z,957.6
2017-03-12T00:43:41.139Z,957.61
2017-03-12T00:44:41.122Z,957.6
2017-03-12T00:45:41.105Z,957.6
2017-03-12T00:46:41.087Z,957.64
2017-03-12T00:47:41.070Z,957.67
2017-03-12T00:48:41.050Z,957.67
2017-03-12T00:49:41.062Z,957.66
2017-03-12T00:50:41.014Z,957.64
2017-03-12T00:51:40.996Z,957.58
2017-03-12T00:52:40.979Z,957.58
2017-03-12T00:53:40.961Z,957.56
2017-03-12T00:54:40.943Z,957.64
2017-03-12T00:55:40.923Z,957.53
2017-03-12T00:56:40.905Z,957.62
2017-03-12T00:57:40.888Z,957.57
2017-03-12T00:58:40.869Z,957.6
2017-03-12T00:59:40.852Z,957.59
2017-03-12T01:00:40.833Z,957.6
2017-03-12T01:01:40.814Z,957.6
2017-03-12T01:02:40.797Z,957.58
2017-03-12T01:03:40.779Z,957.54
2017-03-12T01:04:40.760Z,957.55
2017-03-12T01:05:40.745Z,957.45
2017-03-12T01:06:40.725Z,957.48
2017-03-12T01:07:40.706Z,957.44
2017-03-12T01:08:40.689Z,957.43
2017-03-12T01:09:40.670Z,957.36
2017-03-12T01:10:40.651Z,957.38
2017-03-12T01:11:40.634Z,957.34
2017-03-12T01:12:40.615Z,957.45
2017-03-12T01:13:40.597Z,957.35
2017-03-12T01:14:40.578Z,957.34
2017-03-12T01:15:40.560Z,957.38
2017-03-12T01:16:40.542Z,957.39
2017-03-12T01:17:40.524Z,957.39
2017-03-12T01:18:40.507Z,957.4
2017-03-12T01:19:40.489Z,957.37
2017-03-12T01:20:40.468Z,957.29
2017-03-12T01:21:40.452Z,957.35
2017-03-12T01:22:40.432Z,957.35
2017-03-12T01:23:40.416Z,957.34
2017-03-12T01:24:40.397Z,957.3
2017-03-12T01:25:40.379Z,957.3
2017-03-12T01:26:40.360Z,957.24
2017-03-12T01:27:40.342Z,957.27
2017-03-12T01:28:40.324Z,957.27
2017-03-12T01:29:40.306Z,957.32
2017-03-12T01:30:40.288Z,957.31
2017-03-12T01:31:40.268Z,957.31
2017-03-12T01:32:40.249Z,957.32
2017-03-12T01:33:40.232Z,957.25
2017-03-12T01:34:40.213Z,957.26
2017-03-12T01:35:40.195Z,957.29
2017-03-12T01:36:40.178Z,957.28
2017-03-12T01:37:40.160Z,957.29
2017-03-12T01:38:40.140Z,957.27
2017-03-12T01:39:40.122Z,957.28
2017-03-12T01:40:40.103Z,957.29
2017-03-12T01:41:40.087Z,957.26
2017-03-12T01:42:40.068Z,957.3
2017-03-12T01:43:40.049Z,957.27
2017-03-12T01:44:40.032Z,957.28
2017-03-12T01:45:40.012Z,957.26
2017-03-12T01:46:39.995Z,957.27
2017-03-12T01:47:39.977Z,957.24
2017-03-12T01:48:39.957Z,957.23
2017-03-12T01:49:39.939Z,957.26
2017-03-12T01:50:39.919Z,957.22
2017-03-12T01:51:39.902Z,957.23
2017-03-12T01:52:39.883Z,957.22
2017-03-12T01:53:39.865Z,957.18
2017-03-12T01:54:39.848Z,957.19
2017-03-12T01:55:39.830Z,957.16
2017-03-12T01:56:39.811Z,957.15
2017-03-12T01:57:39.791Z,957.17
2017-03-12T01:58:39.774Z,957.18
2017-03-12T01:59:39.757Z,957.19
2017-03-12T02:00:39.738Z,957.21
2017-03-12T02:01:39.746Z,957.15
2017-03-12T02:02:39.701Z,957.14
2017-03-12T02:03:39.684Z,957.15
2017-03-12T02:04:39.663Z,957.14
2017-03-12T02:05:39.645Z,957.09
2017-03-12T02:06:39.628Z,957.11
2017-03-12T02:07:39.609Z,957.07
2017-03-12T02:08:39.589Z,957.05
2017-03-12T02:09:39.571Z,957.04
2017-03-12T02:10:39.553Z,957.03
2017-03-12T02:11:39.536Z,957.05
2017-03-12T02:12:39.517Z,957.06
2017-03-12T02:13:39.499Z,957.01
2017-03-12T02:14:39.479Z,957.03
2017-03-12T02:15:39.462Z,957.06
2017-03-12T02:16:39.442Z,957.03
2017-03-12T02:17:39.425Z,956.99
2017-03-12T02:18:39.405Z,957
2017-03-12T02:19:39.387Z,957.06
2017-03-12T02:20:39.370Z,956.99
2017-03-12T02:21:39.352Z,957.02
2017-03-12T02:22:39.331Z,956.99
2017-03-12T02:23:39.314Z,957
2017-03-12T02:24:39.296Z,956.96
2017-03-12T02:25:39.277Z,956.95
2017-03-12T02:26:39.259Z,956.93
2017-03-12T02:27:39.241Z,956.93
2017-03-12T02:28:39.224Z,956.92
2017-03-12T02:29:39.204Z,956.91
2017-03-12T02:30:39.188Z,956.86
2017-03-12T02:31:39.167Z,956.92
2017-03-12T02:32:39.150Z,956.85
2017-03-12T02:33:39.131Z,956.87
2017-03-12T02:34:39.112Z,956.88
2017-03-12T02:35:39.093Z,956.84
2017-03-12T02:36:39.074Z,956.85
2017-03-12T02:37:39.057Z,956.82
2017-03-12T02:38:39.081Z,956.83
2017-03-12T02:39:39.080Z,956.84
2017-03-12T02:40:39.042Z,956.8
2017-03-12T02:41:39.045Z,956.79
2017-03-12T02:42:38.966Z,956.8
2017-03-12T02:43:38.959Z,956.8
2017-03-12T02:44:38.926Z,956.76
2017-03-12T02:45:38.908Z,956.76
2017-03-12T02:46:38.891Z,956.79
2017-03-12T02:47:38.871Z,956.79
2017-03-12T02:48:38.852Z,956.82
2017-03-12T02:49:38.841Z,956.83
2017-03-12T02:50:38.817Z,956.83
2017-03-12T02:51:38.797Z,956.83
2017-03-12T02:52:38.779Z,956.8
2017-03-12T02:53:38.759Z,956.82
2017-03-12T02:54:38.741Z,956.78
2017-03-12T02:55:38.722Z,956.75
2017-03-12T02:56:38.704Z,956.76
2017-03-12T02:57:38.686Z,956.75
2017-03-12T02:58:38.666Z,956.77
2017-03-12T02:59:38.649Z,956.74
2017-03-12T03:00:38.630Z,956.77
2017-03-12T03:01:38.611Z,956.8
2017-03-12T03:02:38.592Z,956.8
2017-03-12T03:03:38.581Z,956.78
2017-03-12T03:04:38.556Z,956.8
2017-03-12T03:05:38.537Z,956.74
2017-03-12T03:06:38.518Z,956.75
2017-03-12T03:07:38.500Z,956.79
2017-03-12T03:08:38.482Z,956.78
2017-03-12T03:09:38.462Z,956.78
2017-03-12T03:10:38.443Z,956.78
2017-03-12T03:11:38.426Z,956.81
2017-03-12T03:12:38.408Z,956.76
2017-03-12T03:13:38.388Z,956.78
2017-03-12T03:14:38.370Z,956.75
2017-03-12T03:15:38.352Z,956.74
2017-03-12T03:16:38.331Z,956.78
2017-03-12T03:17:38.314Z,956.78
2017-03-12T03:18:38.295Z,956.74
2017-03-12T03:19:38.276Z,956.77
2017-03-12T03:20:38.257Z,956.72
2017-03-12T03:21:38.239Z,956.75
2017-03-12T03:22:38.221Z,956.75
2017-03-12T03:23:38.201Z,956.69
2017-03-12T03:24:38.183Z,956.73
2017-03-12T03:25:38.165Z,956.68
2017-03-12T03:26:38.147Z,956.71
2017-03-12T03:27:38.128Z,956.71
2017-03-12T03:28:38.110Z,956.66
2017-03-12T03:29:38.091Z,956.69
2017-03-12T03:30:38.072Z,956.63
2017-03-12T03:31:38.052Z,956.64
2017-03-12T03:32:38.034Z,956.61
2017-03-12T03:33:38.015Z,956.62
2017-03-12T03:34:37.997Z,956.6
2017-03-12T03:35:37.978Z,956.59
2017-03-12T03:36:37.959Z,956.6
2017-03-12T03:37:37.940Z,956.58
2017-03-12T03:38:37.923Z,956.58
2017-03-12T03:39:37.903Z,956.57
2017-03-12T03:40:37.889Z,956.53
2017-03-12T03:41:37.866Z,956.54
2017-03-12T03:42:37.847Z,956.53
2017-03-12T03:43:37.829Z,956.55
2017-03-12T03:44:37.810Z,956.52
2017-03-12T03:45:37.792Z,956.49
2017-03-12T03:46:37.772Z,956.46
2017-03-12T03:47:37.755Z,956.47
2017-03-12T03:48:37.735Z,956.43
2017-03-12T03:49:37.717Z,956.45
2017-03-12T03:50:37.698Z,956.46
2017-03-12T03:51:37.678Z,956.44
2017-03-12T03:52:37.659Z,956.41
2017-03-12T03:53:37.640Z,956.45
2017-03-12T03:54:37.622Z,956.45
2017-03-12T03:55:37.604Z,956.45
2017-03-12T03:56:37.585Z,956.46
2017-03-12T03:57:37.566Z,956.49
2017-03-12T03:58:37.548Z,956.5
2017-03-12T03:59:37.529Z,956.51
2017-03-12T04:00:37.511Z,956.46
2017-03-12T04:01:37.492Z,956.45
2017-03-12T04:02:37.473Z,956.49
2017-03-12T04:03:37.455Z,956.51
2017-03-12T04:04:37.436Z,956.51
2017-03-12T04:05:37.417Z,956.48
2017-03-12T04:06:37.398Z,956.48
2017-03-12T04:07:37.381Z,956.49
2017-03-12T04:08:37.361Z,956.45
2017-03-12T04:09:37.342Z,956.46
2017-03-12T04:10:37.323Z,956.47
2017-03-12T04:11:37.304Z,956.49
2017-03-12T04:12:37.286Z,956.46
2017-03-12T04:13:37.272Z,956.46
2017-03-12T04:14:37.249Z,956.51
2017-03-12T04:15:37.229Z,956.48
2017-03-12T04:16:37.210Z,956.49
2017-03-12T04:17:37.192Z,956.52
2017-03-12T04:18:37.174Z,956.51
2017-03-12T04:19:37.154Z,956.53
2017-03-12T04:20:37.136Z,956.48
2017-03-12T04:21:37.118Z,956.51
2017-03-12T04:22:37.098Z,956.5
2017-03-12T04:23:37.079Z,956.49
2017-03-12T04:24:37.061Z,956.47
2017-03-12T04:25:37.042Z,956.49
2017-03-12T04:26:37.022Z,956.47
2017-03-12T04:27:37.004Z,956.47
2017-03-12T04:28:36.989Z,956.47
2017-03-12T04:29:36.967Z,956.49
2017-03-12T04:30:36.946Z,956.49
2017-03-12T04:31:36.929Z,956.49
2017-03-12T04:32:36.911Z,956.51
2017-03-12T04:33:36.891Z,956.46
2017-03-12T04:34:36.873Z,956.52
2017-03-12T04:35:36.852Z,956.52
2017-03-12T04:36:36.835Z,956.54
2017-03-12T04:37:36.815Z,956.54
2017-03-12T04:38:36.797Z,956.57
2017-03-12T04:39:36.778Z,956.56
2017-03-12T04:40:36.760Z,956.54
2017-03-12T04:41:36.740Z,956.54
2017-03-12T04:42:36.722Z,956.51
2017-03-12T04:43:36.703Z,956.5
2017-03-12T04:44:36.683Z,956.56
2017-03-12T04:45:36.664Z,956.57
2017-03-12T04:46:36.647Z,956.55
2017-03-12T04:47:36.627Z,956.49
2017-03-12T04:48:36.607Z,956.52
2017-03-12T04:49:36.590Z,956.54
2017-03-12T04:50:36.571Z,956.55
2017-03-12T04:51:36.551Z,956.53
2017-03-12T04:52:36.532Z,956.53
2017-03-12T04:53:36.514Z,956.52
2017-03-12T04:54:36.494Z,956.56
2017-03-12T04:55:36.476Z,956.55
2017-03-12T04:56:36.457Z,956.55
2017-03-12T04:57:36.440Z,956.54
2017-03-12T04:58:36.420Z,956.55
2017-03-12T04:59:36.400Z,956.52
2017-03-12T05:00:36.381Z,956.59
2017-03-12T05:01:36.363Z,956.55
2017-03-12T05:02:36.344Z,956.58
2017-03-12T05:03:36.325Z,956.59
2017-03-12T05:04:36.305Z,956.63
2017-03-12T05:05:36.287Z,956.61
2017-03-12T05:06:36.268Z,956.62
2017-03-12T05:07:36.249Z,956.61
2017-03-12T05:08:36.230Z,956.62
2017-03-12T05:09:36.212Z,956.65
2017-03-12T05:10:36.191Z,956.68
2017-03-12T05:11:36.173Z,956.62
2017-03-12T05:12:36.156Z,956.64
2017-03-12T05:13:36.135Z,956.66
2017-03-12T05:14:36.116Z,956.66
2017-03-12T05:15:36.097Z,956.66
2017-03-12T05:16:36.078Z,956.7
2017-03-12T05:17:36.059Z,956.67
2017-03-12T05:18:36.042Z,956.69
2017-03-12T05:19:36.021Z,956.73
2017-03-12T05:20:36.003Z,956.72
2017-03-12T05:21:35.983Z,956.72
2017-03-12T05:22:35.964Z,956.74
2017-03-12T05:23:35.947Z,956.73
2017-03-12T05:24:35.927Z,956.72
2017-03-12T05:25:35.909Z,956.71
2017-03-12T05:26:35.890Z,956.75
2017-03-12T05:27:35.871Z,956.76
2017-03-12T05:28:35.853Z,956.73
2017-03-12T05:29:35.832Z,956.73
2017-03-12T05:30:35.812Z,956.71
2017-03-12T05:31:35.795Z,956.74
2017-03-12T05:32:35.775Z,956.76
2017-03-12T05:33:35.756Z,956.7
2017-03-12T05:34:35.736Z,956.74
2017-03-12T05:35:35.718Z,956.74
2017-03-12T05:36:35.699Z,956.77
2017-03-12T05:37:35.681Z,956.77
2017-03-12T05:38:35.663Z,956.74
2017-03-12T05:39:35.643Z,956.74
2017-03-12T05:40:35.623Z,956.79
2017-03-12T05:41:35.606Z,956.73
2017-03-12T05:42:35.587Z,956.76
2017-03-12T05:43:35.566Z,956.74
2017-03-12T05:44:35.549Z,956.73
2017-03-12T05:45:35.531Z,956.73
2017-03-12T05:46:35.511Z,956.72
2017-03-12T05:47:35.492Z,956.78
2017-03-12T05:48:35.472Z,956.75
2017-03-12T05:49:35.454Z,956.77
2017-03-12T05:50:35.434Z,956.75
2017-03-12T05:51:35.416Z,956.72
2017-03-12T05:52:35.397Z,956.74
2017-03-12T05:53:35.378Z,956.7
2017-03-12T05:54:35.358Z,956.74
2017-03-12T05:55:35.339Z,956.72
2017-03-12T05:56:35.320Z,956.77
2017-03-12T05:57:35.301Z,956.82
2017-03-12T05:58:35.282Z,956.76
2017-03-12T05:59:35.263Z,956.75
2017-03-12T06:00:35.246Z,956.78
2017-03-12T06:01:35.228Z,956.8
2017-03-12T06:02:35.208Z,956.85
2017-03-12T06:03:35.189Z,956.85
2017-03-12T06:04:35.170Z,956.83
2017-03-12T06:05:35.150Z,956.82
2017-03-12T06:06:35.131Z,956.81
2017-03-12T06:07:35.113Z,956.83
2017-03-12T06:08:35.094Z,956.83
2017-03-12T06:09:35.075Z,956.83
2017-03-12T06:10:35.057Z,956.86
2017-03-12T06:11:35.040Z,956.84
2017-03-12T06:12:35.020Z,956.88
2017-03-12T06:13:34.999Z,956.9
2017-03-12T06:14:34.980Z,956.87
2017-03-12T06:15:34.963Z,956.9
2017-03-12T06:16:34.941Z,956.92
2017-03-12T06:17:34.924Z,956.91
2017-03-12T06:18:34.905Z,956.94
2017-03-12T06:19:34.886Z,956.93
2017-03-12T06:20:34.868Z,956.94
2017-03-12T06:21:34.848Z,956.94
2017-03-12T06:22:34.832Z,956.95
2017-03-12T06:23:34.810Z,956.91
2017-03-12T06:24:34.794Z,957
2017-03-12T06:25:34.774Z,956.96
2017-03-12T06:26:34.755Z,956.95
2017-03-12T06:27:34.734Z,956.97
2017-03-12T06:28:34.717Z,956.99
2017-03-12T06:29:34.699Z,956.96
2017-03-12T06:30:34.680Z,956.99
2017-03-12T06:31:34.662Z,956.93
2017-03-12T06:32:34.640Z,956.95
2017-03-12T06:33:34.625Z,956.98
2017-03-12T06:34:34.603Z,957.01
2017-03-12T06:35:34.586Z,956.96
2017-03-12T06:36:34.568Z,956.95
2017-03-12T06:37:34.549Z,956.94
2017-03-12T06:38:34.532Z,956.89
2017-03-12T06:39:34.511Z,956.95
2017-03-12T06:40:34.495Z,956.98
2017-03-12T06:41:34.475Z,956.97
2017-03-12T06:42:34.458Z,957.01
2017-03-12T06:43:34.440Z,956.94
2017-03-12T06:44:34.422Z,956.98
2017-03-12T06:45:34.404Z,956.99
2017-03-12T06:46:34.385Z,957
2017-03-12T06:47:34.369Z,956.97
2017-03-12T06:48:34.350Z,956.96
2017-03-12T06:49:34.333Z,956.95
2017-03-12T06:50:34.315Z,956.94
2017-03-12T06:51:34.299Z,956.97
2017-03-12T06:52:34.279Z,956.95
2017-03-12T06:53:34.261Z,956.98
2017-03-12T06:54:34.245Z,956.95
2017-03-12T06:55:34.228Z,956.99
2017-03-12T06:56:34.217Z,956.99
2017-03-12T06:57:34.191Z,957
2017-03-12T06:58:34.210Z,956.96
2017-03-12T06:59:34.239Z,956.97
2017-03-12T07:00:34.139Z,956.95
2017-03-12T07:01:34.168Z,956.93
2017-03-12T07:02:34.104Z,956.93
2017-03-12T07:03:34.243Z,956.96
2017-03-12T07:04:34.206Z,956.99
2017-03-12T07:05:34.099Z,956.97
2017-03-12T07:06:34.033Z,956.95
2017-03-12T07:07:34.015Z,956.96
2017-03-12T07:08:34.003Z,956.98
2017-03-12T07:09:33.987Z,957.01
2017-03-12T07:10:33.963Z,956.98
2017-03-12T07:11:33.945Z,956.97
2017-03-12T07:12:33.930Z,956.99
2017-03-12T07:13:33.911Z,956.99
2017-03-12T07:14:33.893Z,957.03
2017-03-12T07:15:33.877Z,957
2017-03-12T07:16:33.859Z,957.03
2017-03-12T07:17:33.843Z,957.08
2017-03-12T07:18:33.824Z,957.02
2017-03-12T07:19:33.808Z,957.06
2017-03-12T07:20:33.789Z,957.08
2017-03-12T07:21:33.771Z,957.06
2017-03-12T07:22:33.756Z,957.07
2017-03-12T07:23:33.738Z,957.03
2017-03-12T07:24:33.720Z,957.07
2017-03-12T07:25:33.703Z,957.08
2017-03-12T07:26:33.684Z,957.04
2017-03-12T07:27:33.668Z,957.02
2017-03-12T07:28:33.651Z,957.01
2017-03-12T07:29:33.632Z,957.02
2017-03-12T07:30:33.616Z,956.96
2017-03-12T07:31:33.600Z,956.92
2017-03-12T07:32:33.580Z,956.9
2017-03-12T07:33:33.564Z,956.93
2017-03-12T07:34:33.547Z,956.89
2017-03-12T07:35:33.529Z,956.93
2017-03-12T07:36:33.513Z,956.89
2017-03-12T07:37:33.494Z,956.85
2017-03-12T07:38:33.479Z,956.85
2017-03-12T07:39:33.462Z,956.85
2017-03-12T07:40:33.444Z,956.81
2017-03-12T07:41:33.428Z,956.86
2017-03-12T07:42:33.412Z,956.79
2017-03-12T07:43:33.393Z,956.79
2017-03-12T07:44:33.376Z,956.83
2017-03-12T07:45:33.359Z,956.8
2017-03-12T07:46:33.343Z,956.77
2017-03-12T07:47:33.326Z,956.82
2017-03-12T07:48:33.309Z,956.83
2017-03-12T07:49:33.292Z,956.82
2017-03-12T07:50:33.276Z,956.84
2017-03-12T07:51:33.258Z,956.81
2017-03-12T07:52:33.242Z,956.83
2017-03-12T07:53:33.226Z,956.79
2017-03-12T07:54:33.209Z,956.78
2017-03-12T07:55:33.192Z,956.74
2017-03-12T07:56:33.176Z,956.81
2017-03-12T07:57:33.160Z,956.81
2017-03-12T07:58:33.144Z,956.79
2017-03-12T07:59:33.127Z,956.76
2017-03-12T08:00:33.111Z,956.81
2017-03-12T08:01:33.094Z,956.8
2017-03-12T08:02:33.077Z,956.82
2017-03-12T08:03:33.061Z,956.84
2017-03-12T08:04:33.044Z,956.79
2017-03-12T08:05:33.028Z,956.87
2017-03-12T08:06:33.012Z,956.84
2017-03-12T08:07:32.996Z,956.82
2017-03-12T08:08:32.980Z,956.85
2017-03-12T08:09:32.967Z,956.79
2017-03-12T08:10:32.947Z,956.88
2017-03-12T08:11:32.930Z,956.9
2017-03-12T08:12:32.916Z,956.88
2017-03-12T08:13:32.899Z,956.9
2017-03-12T08:14:32.883Z,956.92
2017-03-12T08:15:32.869Z,956.91
2017-03-12T08:16:32.850Z,956.86
2017-03-12T08:17:32.836Z,956.89
2017-03-12T08:18:32.820Z,956.87
2017-03-12T08:19:32.805Z,956.92
2017-03-12T08:20:32.789Z,956.91
2017-03-12T08:21:32.773Z,956.93
2017-03-12T08:22:32.758Z,956.95
2017-03-12T08:23:32.742Z,956.92
2017-03-12T08:24:32.726Z,956.89
2017-03-12T08:25:32.711Z,956.9
2017-03-12T08:26:32.694Z,956.93
2017-03-12T08:27:32.679Z,956.9
2017-03-12T08:28:32.664Z,956.89
2017-03-12T08:29:32.650Z,956.89
2017-03-12T08:30:32.635Z,956.88
2017-03-12T08:31:32.618Z,956.86
2017-03-12T08:32:32.604Z,956.88
2017-03-12T08:33:32.590Z,956.83
2017-03-12T08:34:32.574Z,956.8
2017-03-12T08:35:32.558Z,956.8
2017-03-12T08:36:32.543Z,956.78
2017-03-12T08:37:32.529Z,956.79
2017-03-12T08:38:32.513Z,956.76
2017-03-12T08:39:32.497Z,956.74
2017-03-12T08:40:32.484Z,956.75
2017-03-12T08:41:32.470Z,956.73
2017-03-12T08:42:32.455Z,956.73
2017-03-12T08:43:32.439Z,956.73
2017-03-12T08:44:32.429Z,956.68
2017-03-12T08:45:32.410Z,956.66
2017-03-12T08:46:32.397Z,956.65
2017-03-12T08:47:32.382Z,956.59
2017-03-12T08:48:32.366Z,956.66
2017-03-12T08:49:32.352Z,956.66
2017-03-12T08:50:32.338Z,956.66
2017-03-12T08:51:32.323Z,956.69
2017-03-12T08:52:32.310Z,956.66
2017-03-12T08:53:32.293Z,956.69
2017-03-12T08:54:32.279Z,956.67
2017-03-12T08:55:32.267Z,956.71
2017-03-12T08:56:32.251Z,956.72
2017-03-12T08:57:32.237Z,956.69
2017-03-12T08:58:32.222Z,956.7
2017-03-12T08:59:32.210Z,956.68
2017-03-12T09:00:32.193Z,956.71
2017-03-12T09:01:32.179Z,956.69
2017-03-12T09:02:32.165Z,956.67
2017-03-12T09:03:32.152Z,956.69
2017-03-12T09:04:32.137Z,956.69
2017-03-12T09:05:32.123Z,956.62
2017-03-12T09:06:32.108Z,956.62
2017-03-12T09:07:32.094Z,956.64
2017-03-12T09:08:32.080Z,956.64
2017-03-12T09:09:32.066Z,956.61
2017-03-12T09:10:32.053Z,956.61
2017-03-12T09:11:32.038Z,956.63
2017-03-12T09:12:32.025Z,956.58
2017-03-12T09:13:32.009Z,956.62
2017-03-12T09:14:31.995Z,956.58
2017-03-12T09:15:31.982Z,956.59
2017-03-12T09:16:31.970Z,956.53
2017-03-12T09:17:31.955Z,956.54
2017-03-12T09:18:31.939Z,956.55
2017-03-12T09:19:31.926Z,956.58
2017-03-12T09:20:31.912Z,956.55
2017-03-12T09:21:31.902Z,956.44
2017-03-12T09:22:31.884Z,956.48
2017-03-12T09:23:31.871Z,956.53
2017-03-12T09:24:31.860Z,956.51
2017-03-12T09:25:31.844Z,956.54
2017-03-12T09:26:31.830Z,956.56
2017-03-12T09:27:31.816Z,956.55
2017-03-12T09:28:31.804Z,956.57
2017-03-12T09:29:31.793Z,956.53
2017-03-12T09:30:31.778Z,956.55
2017-03-12T09:31:31.762Z,956.56
2017-03-12T09:32:31.747Z,956.56
2017-03-12T09:33:31.735Z,956.51
2017-03-12T09:34:31.720Z,956.52
2017-03-12T09:35:31.708Z,956.52
2017-03-12T09:36:31.696Z,956.53
2017-03-12T09:37:31.682Z,956.54
2017-03-12T09:38:31.667Z,956.53
2017-03-12T09:39:31.655Z,956.5
2017-03-12T09:40:31.639Z,956.51
2017-03-12T09:41:31.630Z,956.49
2017-03-12T09:42:31.614Z,956.54
2017-03-12T09:43:31.603Z,956.49
2017-03-12T09:44:31.590Z,956.5
2017-03-12T09:45:31.579Z,956.48
2017-03-12T09:46:31.564Z,956.5
2017-03-12T09:47:31.553Z,956.51
2017-03-12T09:48:31.536Z,956.55
2017-03-12T09:49:31.523Z,956.52
2017-03-12T09:50:31.512Z,956.55
2017-03-12T09:51:31.499Z,956.52
2017-03-12T09:52:31.487Z,956.55
2017-03-12T09:53:31.473Z,956.54
2017-03-12T09:54:31.464Z,956.54
2017-03-12T09:55:31.450Z,956.52
2017-03-12T09:56:31.436Z,956.52
2017-03-12T09:57:31.424Z,956.51
2017-03-12T09:58:31.413Z,956.46
2017-03-12T09:59:31.398Z,956.45
2017-03-12T10:00:31.386Z,956.5
2017-03-12T10:01:31.375Z,956.48
2017-03-12T10:02:31.361Z,956.51
2017-03-12T10:03:31.350Z,956.51
2017-03-12T10:04:31.337Z,956.49
2017-03-12T10:05:31.324Z,956.47
2017-03-12T10:06:31.314Z,956.47
2017-03-12T10:07:31.299Z,956.46
2017-03-12T10:08:31.288Z,956.44
2017-03-12T10:09:31.278Z,956.45
2017-03-12T10:10:31.262Z,956.4
2017-03-12T10:11:31.252Z,956.44
2017-03-12T10:12:31.240Z,956.46
2017-03-12T10:13:31.227Z,956.43
2017-03-12T10:14:31.213Z,956.41
2017-03-12T10:15:31.204Z,956.4
2017-03-12T10:16:31.192Z,956.37
2017-03-12T10:17:31.179Z,956.33
2017-03-12T10:18:31.167Z,956.33
2017-03-12T10:19:31.155Z,956.32
2017-03-12T10:20:31.143Z,956.32
2017-03-12T10:21:31.133Z,956.29
2017-03-12T10:22:31.121Z,956.31
2017-03-12T10:23:31.109Z,956.35
2017-03-12T10:24:31.097Z,956.29
2017-03-12T10:25:31.085Z,956.31
2017-03-12T10:26:31.074Z,956.34
2017-03-12T10:27:31.063Z,956.27
2017-03-12T10:28:31.051Z,956.32
2017-03-12T10:29:31.038Z,956.31
2017-03-12T10:30:31.027Z,956.22
2017-03-12T10:31:31.015Z,956.23
2017-03-12T10:32:31.005Z,956.26
2017-03-12T10:33:30.993Z,956.26
2017-03-12T10:34:31.010Z,956.29
2017-03-12T10:35:30.970Z,956.26
2017-03-12T10:36:30.960Z,956.22
2017-03-12T10:37:30.947Z,956.22
2017-03-12T10:38:30.935Z,956.13
2017-03-12T10:39:30.924Z,956.15
2017-03-12T10:40:30.912Z,956.18
2017-03-12T10:41:30.901Z,956.14
2017-03-12T10:42:30.889Z,956.11
2017-03-12T10:43:30.878Z,956.15
2017-03-12T10:44:30.872Z,956.14
2017-03-12T10:45:30.858Z,956.13
2017-03-12T10:46:30.845Z,956.14
2017-03-12T10:47:30.835Z,956.12
2017-03-12T10:48:30.823Z,956.1
2017-03-12T10:49:30.814Z,956.12
2017-03-12T10:50:30.801Z,956.11
2017-03-12T10:51:30.790Z,956.09
2017-03-12T10:52:30.779Z,956.13
2017-03-12T10:53:30.769Z,956.1
2017-03-12T10:54:30.758Z,956.1
2017-03-12T10:55:30.746Z,956.08
2017-03-12T10:56:30.736Z,956.1
2017-03-12T10:57:30.727Z,956.08
2017-03-12T10:58:30.717Z,956.06
2017-03-12T10:59:30.703Z,956.06
2017-03-12T11:00:30.693Z,956.03
2017-03-12T11:01:30.683Z,956.03
2017-03-12T11:02:30.673Z,956.02
2017-03-12T11:03:30.660Z,956.03
2017-03-12T11:04:30.651Z,956.01
2017-03-12T11:05:30.641Z,956.08
2017-03-12T11:06:30.630Z,956.03
2017-03-12T11:07:30.619Z,956.09
2017-03-12T11:08:30.608Z,956.08
2017-03-12T11:09:30.598Z,956.06
2017-03-12T11:10:30.587Z,956.07
2017-03-12T11:11:30.627Z,956.08
2017-03-12T11:12:30.565Z,956.09
2017-03-12T11:13:30.556Z,956.08
2017-03-12T11:14:30.545Z,956.1
2017-03-12T11:15:30.534Z,956.11
2017-03-12T11:16:30.523Z,956.09
2017-03-12T11:17:30.516Z,956.1
2017-03-12T11:18:30.503Z,956.1
2017-03-12T11:19:30.492Z,956.04
2017-03-12T11:20:30.480Z,956.06
2017-03-12T11:21:30.471Z,956.07
2017-03-12T11:22:30.461Z,956.05
2017-03-12T11:23:30.450Z,956.06
2017-03-12T11:24:30.441Z,956
2017-03-12T11:25:30.429Z,955.99
2017-03-12T11:26:30.417Z,956
2017-03-12T11:27:30.408Z,955.98
2017-03-12T11:28:30.402Z,955.97
2017-03-12T11:29:30.389Z,955.94
2017-03-12T11:30:30.380Z,955.89
2017-03-12T11:31:30.369Z,955.95
2017-03-12T11:32:30.358Z,955.92
2017-03-12T11:33:30.346Z,955.97
2017-03-12T11:34:30.337Z,955.91
2017-03-12T11:35:30.326Z,955.91
2017-03-12T11:36:30.315Z,955.89
2017-03-12T11:37:30.304Z,955.92
2017-03-12T11:38:30.295Z,955.89
2017-03-12T11:39:30.283Z,955.9
2017-03-12T11:40:30.274Z,955.88
2017-03-12T11:41:30.261Z,955.89
2017-03-12T11:42:30.253Z,955.83
2017-03-12T11:43:30.243Z,955.8
2017-03-12T11:44:30.233Z,955.81
2017-03-12T11:45:30.221Z,955.81
2017-03-12T11:46:30.211Z,955.77
2017-03-12T11:47:30.200Z,955.84
2017-03-12T11:48:30.190Z,955.78
2017-03-12T11:49:30.179Z,955.82
2017-03-12T11:50:30.170Z,955.77
2017-03-12T11:51:30.160Z,955.79
2017-03-12T11:52:30.154Z,955.78
2017-03-12T11:53:30.139Z,955.78
2017-03-12T11:54:30.129Z,955.78
2017-03-12T11:55:30.119Z,955.7
2017-03-12T11:56:30.109Z,955.74
2017-03-12T11:57:30.098Z,955.72
2017-03-12T11:58:30.089Z,955.71
2017-03-12T11:59:30.078Z,955.71
2017-03-12T12:00:30.067Z,955.68
2017-03-12T12:01:30.059Z,955.69
2017-03-12T12:02:30.048Z,955.69
2017-03-12T12:03:30.057Z,955.68
2017-03-12T12:04:30.028Z,955.61
2017-03-12T12:05:30.020Z,955.6
2017-03-12T12:06:30.007Z,955.6
2017-03-12T12:07:29.999Z,955.61
2017-03-12T12:08:29.990Z,955.64
2017-03-12T12:09:29.979Z,955.64
2017-03-12T12:10:29.967Z,955.63
2017-03-12T12:11:29.959Z,955.61
2017-03-12T12:12:29.950Z,955.62
2017-03-12T12:13:29.941Z,955.62
2017-03-12T12:14:29.931Z,955.58
2017-03-12T12:15:29.920Z,955.53
2017-03-12T12:16:29.910Z,955.56
2017-03-12T12:17:29.900Z,955.59
2017-03-12T12:18:29.891Z,955.57
2017-03-12T12:19:29.882Z,955.56
2017-03-12T12:20:29.873Z,955.51
2017-03-12T12:21:29.862Z,955.49
2017-03-12T12:22:29.852Z,955.5
2017-03-12T12:23:29.844Z,955.48
2017-03-12T12:24:29.834Z,955.5
2017-03-12T12:25:29.825Z,955.48
2017-03-12T12:26:29.815Z,955.43
2017-03-12T12:27:29.806Z,955.41
2017-03-12T12:28:29.796Z,955.41
2017-03-12T12:29:29.787Z,955.39
2017-03-12T12:30:29.778Z,955.37
2017-03-12T12:31:29.772Z,955.35